createdAt,value
2022-11-03T00:01:43.199Z,8.35
2022-11-03T00:04:12.011Z,8.29
2022-11-03T00:06:39.528Z,8.37
2022-11-03T00:09:08.373Z,8.38
2022-11-03T00:11:36.034Z,8.39
2022-11-03T00:14:02.966Z,8.39
2022-11-03T00:16:29.708Z,8.34
2022-11-03T00:18:56.415Z,8.36
2022-11-03T00:21:23.181Z,8.34
2022-11-03T00:23:49.789Z,8.33
2022-11-03T00:26:26.896Z,8.33
2022-11-03T00:28:55.502Z,8.32
2022-11-03T00:31:22.857Z,8.32
2022-11-03T00:33:49.615Z,8.32
2022-11-03T00:36:17.282Z,8.32
2022-11-03T00:38:44.191Z,8.32
2022-11-03T00:41:11.494Z,8.31
2022-11-03T00:43:38.506Z,8.30
2022-11-03T00:46:05.791Z,8.30
2022-11-03T00:48:33.785Z,8.30
2022-11-03T00:51:09.728Z,8.31
2022-11-03T00:53:46.928Z,8.32
2022-11-03T00:56:14.378Z,8.31
2022-11-03T00:58:42.369Z,8.31
2022-11-03T01:01:11.959Z,8.31
2022-11-03T01:03:39.528Z,8.32
2022-11-03T01:06:26.623Z,8.32
2022-11-03T01:08:53.383Z,8.33
2022-11-03T01:11:40.299Z,8.33
2022-11-03T01:14:07.285Z,8.33
2022-11-03T01:16:34.037Z,8.31
2022-11-03T01:19:00.769Z,8.34
2022-11-03T01:21:27.696Z,8.35
2022-11-03T01:23:54.484Z,8.33
2022-11-03T01:26:21.424Z,8.35
2022-11-03T01:28:48.310Z,8.36
2022-11-03T01:31:18.431Z,8.36
2022-11-03T01:33:48.497Z,8.38
2022-11-03T01:36:15.458Z,8.40
2022-11-03T01:38:42.433Z,8.41
2022-11-03T01:41:14.701Z,8.42
2022-11-03T01:43:41.757Z,8.43
2022-11-03T01:46:11.765Z,8.44
2022-11-03T01:48:44.677Z,8.44
2022-11-03T01:51:11.549Z,8.43
2022-11-03T01:53:38.275Z,8.44
2022-11-03T01:56:05.165Z,8.45
2022-11-03T01:58:34.030Z,8.47
2022-11-03T02:01:00.851Z,8.48
2022-11-03T02:03:28.224Z,8.50
2022-11-03T02:05:55.104Z,8.51
2022-11-03T02:09:06.369Z,8.52
2022-11-03T02:11:52.136Z,8.54
2022-11-03T02:14:18.952Z,8.54
2022-11-03T02:16:48.655Z,8.55
2022-11-03T02:19:49.251Z,8.56
2022-11-03T02:22:46.396Z,8.55
2022-11-03T02:25:36.364Z,8.54
2022-11-03T02:28:03.832Z,8.52
2022-11-03T02:30:56.505Z,8.51
2022-11-03T02:33:29.591Z,8.47
2022-11-03T02:36:04.103Z,8.51
2022-11-03T02:38:30.893Z,8.51
2022-11-03T02:40:58.503Z,8.53
2022-11-03T02:43:25.250Z,8.54
2022-11-03T02:45:51.886Z,8.55
2022-11-03T02:48:18.679Z,8.56
2022-11-03T02:50:45.321Z,8.56
2022-11-03T02:53:12.841Z,8.58
2022-11-03T02:55:56.316Z,8.59
2022-11-03T02:58:44.844Z,8.60
2022-11-03T03:01:27.485Z,8.61
2022-11-03T03:03:55.992Z,8.59
2022-11-03T03:06:29.821Z,8.63
2022-11-03T03:08:59.597Z,8.61
2022-11-03T03:11:39.161Z,8.65
2022-11-03T03:14:15.058Z,8.65
2022-11-03T03:17:03.174Z,8.65
2022-11-03T03:19:38.895Z,8.64
2022-11-03T03:22:13.972Z,8.65
2022-11-03T03:24:55.833Z,8.65
2022-11-03T03:27:24.387Z,8.66
2022-11-03T03:29:53.954Z,8.66
2022-11-03T03:32:21.286Z,8.67
2022-11-03T03:34:47.969Z,8.67
2022-11-03T03:37:14.780Z,8.68
2022-11-03T03:39:41.407Z,8.69
2022-11-03T03:42:08.517Z,8.69
2022-11-03T03:44:35.295Z,8.69
2022-11-03T03:47:04.441Z,8.69
2022-11-03T03:49:31.156Z,8.68
2022-11-03T03:51:57.816Z,8.67
2022-11-03T03:54:24.546Z,8.68
2022-11-03T03:56:58.760Z,8.68
2022-11-03T03:59:25.906Z,8.67
2022-11-03T04:01:52.779Z,8.66
2022-11-03T04:04:19.612Z,8.63
2022-11-03T04:06:46.326Z,8.67
2022-11-03T04:09:13.060Z,8.67
2022-11-03T04:11:58.476Z,8.67
2022-11-03T04:14:43.633Z,8.68
2022-11-03T04:17:38.691Z,8.67
2022-11-03T04:20:28.308Z,8.67
2022-11-03T04:22:55.033Z,8.68
2022-11-03T04:25:21.780Z,8.68
2022-11-03T04:27:48.489Z,8.69
2022-11-03T04:30:19.705Z,8.68
2022-11-03T04:32:47.517Z,8.69
2022-11-03T04:35:20.937Z,8.70
2022-11-03T04:37:57.299Z,8.71
2022-11-03T04:40:24.174Z,8.72
2022-11-03T04:42:51.143Z,8.73
2022-11-03T04:45:31.187Z,8.74
2022-11-03T04:47:59.105Z,8.74
2022-11-03T04:50:25.815Z,8.74
2022-11-03T04:52:57.615Z,8.75
2022-11-03T04:55:24.640Z,8.75
2022-11-03T04:57:55.137Z,8.76
2022-11-03T05:43:30.724Z,8.91
2022-11-03T05:45:57.938Z,8.90
2022-11-03T05:48:27.464Z,8.90
2022-11-03T05:50:59.434Z,8.91
2022-11-03T05:53:30.636Z,8.92
2022-11-03T05:56:02.896Z,8.95
2022-11-03T05:58:32.456Z,8.97
2022-11-03T06:00:59.996Z,8.99
2022-11-03T06:03:30.440Z,9.01
2022-11-03T06:05:57.892Z,9.05
2022-11-03T06:08:34.053Z,9.09
2022-11-03T06:11:00.808Z,9.12
2022-11-03T06:13:33.581Z,9.15
2022-11-03T06:16:24.458Z,9.17
2022-11-03T06:18:53.600Z,9.18
2022-11-03T06:21:22.641Z,9.20
2022-11-03T06:23:49.226Z,9.22
2022-11-03T06:26:18.302Z,9.25
2022-11-03T06:28:44.780Z,9.27
2022-11-03T06:31:23.404Z,9.31
2022-11-03T06:33:51.244Z,9.33
2022-11-03T06:36:19.881Z,9.35
2022-11-03T06:38:55.086Z,9.36
2022-11-03T06:41:29.017Z,9.39
2022-11-03T06:43:55.854Z,9.43
2022-11-03T06:46:24.724Z,9.45
2022-11-03T06:48:52.042Z,9.48
2022-11-03T06:51:27.157Z,9.50
2022-11-03T06:53:58.161Z,9.51
2022-11-03T06:56:27.845Z,9.50
2022-11-03T06:58:57.743Z,9.56
2022-11-03T07:01:26.307Z,9.58
2022-11-03T07:04:03.347Z,9.60
2022-11-03T07:06:34.892Z,9.64
2022-11-03T07:09:04.256Z,9.66
2022-11-03T07:11:35.260Z,9.68
2022-11-03T07:14:15.818Z,9.69
2022-11-03T07:16:45.609Z,9.73
2022-11-03T07:19:23.286Z,9.75
2022-11-03T07:21:57.709Z,9.75
2022-11-03T07:24:26.904Z,9.80
2022-11-03T07:26:56.649Z,9.82
2022-11-03T07:29:25.126Z,9.83
2022-11-03T07:31:52.066Z,9.84
2022-11-03T07:34:21.412Z,9.84
2022-11-03T07:36:54.375Z,9.86
2022-11-03T07:39:22.421Z,9.84
2022-11-03T07:41:49.926Z,9.89
2022-11-03T07:44:20.028Z,9.89
2022-11-03T07:46:47.052Z,9.90
2022-11-03T07:49:25.695Z,9.91
2022-11-03T07:51:52.353Z,9.94
2022-11-03T07:54:20.096Z,9.97
2022-11-03T07:56:54.231Z,9.98
2022-11-03T07:59:33.395Z,10.01
2022-11-03T08:02:00.157Z,10.04
2022-11-03T08:04:28.365Z,10.07
2022-11-03T08:06:55.052Z,10.11
2022-11-03T08:09:21.600Z,10.13
2022-11-03T08:11:48.993Z,10.15
2022-11-03T08:14:15.809Z,10.16
2022-11-03T08:16:43.094Z,10.17
2022-11-03T08:19:09.835Z,10.19
2022-11-03T08:21:40.208Z,10.19
2022-11-03T08:24:06.929Z,10.21
2022-11-03T08:26:34.117Z,10.24
2022-11-03T08:29:01.260Z,10.26
2022-11-03T08:31:29.566Z,10.25
2022-11-03T08:33:56.155Z,10.27
2022-11-03T08:36:24.192Z,10.32
2022-11-03T08:38:50.970Z,10.33
2022-11-03T08:41:18.199Z,10.34
2022-11-03T08:43:45.210Z,10.36
2022-11-03T08:46:17.604Z,10.38
2022-11-03T08:48:45.300Z,10.35
2022-11-03T08:51:13.101Z,10.40
2022-11-03T08:53:41.831Z,10.41
2022-11-03T08:56:13.074Z,10.41
2022-11-03T08:58:42.233Z,10.42
2022-11-03T09:01:08.767Z,10.41
2022-11-03T09:03:35.433Z,10.40
2022-11-03T09:06:02.874Z,10.36
2022-11-03T09:11:19.157Z,10.39
2022-11-03T09:13:45.722Z,10.39
2022-11-03T09:16:12.180Z,10.40
2022-11-03T09:18:38.656Z,10.42
2022-11-03T09:21:05.876Z,10.44
2022-11-03T09:23:32.421Z,10.46
2022-11-03T09:25:59.085Z,10.50
2022-11-03T09:28:26.000Z,10.48
2022-11-03T09:30:53.240Z,10.50
2022-11-03T09:33:19.985Z,10.49
2022-11-03T09:35:47.742Z,10.48
2022-11-03T09:38:14.217Z,10.47
2022-11-03T09:40:44.766Z,10.45
2022-11-03T09:43:11.312Z,10.46
2022-11-03T09:45:39.002Z,10.45
2022-11-03T09:48:09.828Z,10.47
2022-11-03T09:50:37.337Z,10.47
2022-11-03T09:53:04.503Z,10.46
2022-11-03T09:55:32.729Z,10.46
2022-11-03T09:58:01.173Z,10.45
2022-11-03T10:00:27.869Z,10.44
2022-11-03T10:02:54.536Z,10.44
2022-11-03T10:05:25.496Z,10.43
2022-11-03T10:07:56.967Z,10.40
2022-11-03T10:10:24.517Z,10.39
2022-11-03T10:12:52.634Z,10.39
2022-11-03T10:15:22.137Z,10.39
2022-11-03T10:17:52.269Z,10.38
2022-11-03T10:20:20.695Z,10.37
2022-11-03T10:22:51.734Z,10.35
2022-11-03T10:25:28.665Z,10.35
2022-11-03T10:28:27.700Z,10.29
2022-11-03T10:31:17.000Z,10.18
2022-11-03T10:33:54.387Z,10.13
2022-11-03T10:36:25.988Z,10.05
2022-11-03T10:38:52.739Z,9.99
2022-11-03T10:41:19.939Z,9.93
2022-11-03T10:44:11.358Z,9.88
2022-11-03T10:46:50.754Z,9.83
2022-11-03T10:49:18.804Z,9.79
2022-11-03T10:51:52.031Z,9.75
2022-11-03T10:54:21.065Z,9.73
2022-11-03T10:56:47.696Z,9.69
2022-11-03T10:59:30.934Z,9.64
2022-11-03T11:01:59.597Z,9.57
2022-11-03T11:04:26.311Z,9.52
2022-11-03T11:06:53.051Z,9.47
2022-11-03T11:09:26.775Z,9.40
2022-11-03T11:12:14.493Z,9.33
2022-11-03T11:15:00.544Z,9.29
2022-11-03T11:17:41.772Z,9.27
2022-11-03T11:20:18.203Z,9.24
2022-11-03T11:22:45.342Z,9.19
2022-11-03T11:25:11.887Z,9.17
2022-11-03T11:27:39.172Z,9.16
2022-11-03T11:30:18.399Z,9.14
2022-11-03T11:32:45.217Z,9.11
2022-11-03T11:35:15.594Z,9.09
2022-11-03T11:37:42.721Z,9.08
2022-11-03T11:40:13.251Z,9.06
2022-11-03T11:43:06.487Z,9.06
2022-11-03T11:46:11.283Z,9.07
2022-11-03T11:48:40.420Z,9.07
2022-11-03T11:51:08.645Z,9.09
2022-11-03T11:53:41.552Z,9.11
2022-11-03T11:56:09.954Z,9.12
2022-11-03T11:58:54.244Z,9.13
2022-11-03T12:01:30.192Z,9.14
2022-11-03T12:03:58.708Z,9.16
2022-11-03T12:06:36.158Z,9.18
2022-11-03T12:09:14.906Z,9.19
2022-11-03T12:11:46.077Z,9.19
2022-11-03T12:14:28.707Z,9.19
2022-11-03T12:17:18.030Z,9.20
2022-11-03T12:19:54.980Z,9.22
2022-11-03T12:22:28.416Z,9.23
2022-11-03T12:25:03.604Z,9.25
2022-11-03T12:27:30.306Z,9.29
2022-11-03T12:30:01.592Z,9.32
2022-11-03T12:32:35.855Z,9.36
2022-11-03T12:35:03.777Z,9.40
2022-11-03T12:37:31.377Z,9.41
2022-11-03T12:39:58.585Z,9.44
2022-11-03T12:42:25.634Z,9.46
2022-11-03T12:44:52.703Z,9.49
2022-11-03T12:47:19.311Z,9.49
2022-11-03T12:49:45.932Z,9.49
2022-11-03T12:52:12.546Z,9.49
2022-11-03T12:54:41.514Z,9.49
2022-11-03T12:57:08.154Z,9.49
2022-11-03T12:59:35.347Z,9.48
2022-11-03T13:02:02.483Z,9.48
2022-11-03T13:04:29.352Z,9.49
2022-11-03T13:06:56.091Z,9.49
2022-11-03T13:09:22.656Z,9.50
2022-11-03T13:12:09.172Z,9.50
2022-11-03T13:14:35.875Z,9.49
2022-11-03T13:17:03.098Z,9.44
2022-11-03T13:19:29.600Z,9.49
2022-11-03T13:21:57.632Z,9.50
2022-11-03T13:24:24.302Z,9.48
2022-11-03T13:26:51.443Z,9.52
2022-11-03T13:29:18.029Z,9.52
2022-11-03T13:31:45.708Z,9.50
2022-11-03T13:34:12.322Z,9.49
2022-11-03T13:36:39.196Z,9.49
2022-11-03T13:39:05.718Z,9.50
2022-11-03T13:41:32.727Z,9.49
2022-11-03T13:43:59.269Z,9.48
2022-11-03T13:46:25.776Z,9.46
2022-11-03T13:49:42.281Z,9.43
2022-11-03T13:51:42.132Z,9.42
2022-11-03T13:59:41.945Z,9.35
2022-11-03T14:04:56.249Z,9.31
2022-11-03T14:07:22.863Z,9.31
2022-11-03T14:09:49.342Z,9.29
2022-11-03T14:12:31.498Z,9.29
2022-11-03T14:15:03.505Z,9.28
2022-11-03T14:17:30.449Z,9.25
2022-11-03T14:20:02.511Z,9.21
2022-11-03T14:22:30.926Z,9.20
2022-11-03T14:24:57.921Z,9.17
2022-11-03T14:27:25.395Z,9.15
2022-11-03T14:29:52.576Z,9.14
2022-11-03T14:32:19.373Z,9.12
2022-11-03T14:34:46.368Z,9.09
2022-11-03T14:37:13.484Z,9.05
2022-11-03T14:39:40.073Z,9.04
2022-11-03T14:42:10.913Z,9.03
2022-11-03T14:44:38.405Z,9.01
2022-11-03T14:47:12.043Z,9.01
2022-11-03T14:49:38.701Z,8.99
2022-11-03T14:52:06.653Z,8.97
2022-11-03T14:54:33.852Z,8.95
2022-11-03T14:57:00.454Z,8.95
2022-11-03T14:59:27.420Z,8.96
2022-11-03T15:01:54.195Z,8.94
2022-11-03T15:04:21.311Z,8.93
2022-11-03T15:06:48.622Z,8.93
2022-11-03T15:09:16.762Z,8.92
2022-11-03T15:11:43.908Z,8.91
2022-11-03T15:14:12.148Z,8.90
2022-11-03T15:16:39.045Z,8.90
2022-11-03T15:19:06.113Z,8.89
2022-11-03T15:21:32.968Z,8.85
2022-11-03T15:26:46.434Z,8.90
2022-11-03T15:29:13.799Z,8.90
2022-11-03T15:31:46.253Z,8.90
2022-11-03T15:34:15.418Z,8.90
2022-11-03T15:36:41.951Z,8.88
2022-11-03T15:39:08.903Z,8.87
2022-11-03T15:41:35.469Z,8.86
2022-11-03T15:44:02.220Z,8.86
2022-11-03T15:46:28.885Z,8.86
2022-11-03T15:48:56.982Z,8.87
2022-11-03T15:51:23.586Z,8.87
2022-11-03T15:53:54.906Z,8.87
2022-11-03T15:56:23.681Z,8.84
2022-11-03T15:58:50.277Z,8.77
2022-11-03T16:01:16.824Z,8.80
2022-11-03T16:03:44.772Z,8.80
2022-11-03T16:06:11.391Z,8.80
2022-11-03T16:08:38.031Z,8.81
2022-11-03T16:11:04.757Z,8.77
2022-11-03T16:13:36.956Z,8.78
2022-11-03T16:16:05.002Z,8.74
2022-11-03T16:18:32.515Z,8.77
2022-11-03T16:20:59.008Z,8.78
2022-11-03T16:23:25.563Z,8.78
2022-11-03T16:25:52.181Z,8.78
2022-11-03T16:28:18.677Z,8.74
2022-11-03T16:30:49.794Z,8.73
2022-11-03T16:33:19.776Z,8.73
2022-11-03T16:35:46.828Z,8.71
2022-11-03T16:38:14.634Z,8.62
2022-11-03T16:40:41.846Z,8.61
2022-11-03T16:43:08.764Z,8.59
2022-11-03T16:45:38.445Z,8.60
2022-11-03T16:48:05.756Z,8.62
2022-11-03T16:50:33.141Z,8.63
2022-11-03T16:52:59.731Z,8.63
2022-11-03T16:55:26.238Z,8.63
2022-11-03T16:57:52.909Z,8.64
2022-11-03T17:00:19.632Z,8.63
2022-11-03T17:02:46.569Z,8.61
2022-11-03T17:05:13.479Z,8.59
2022-11-03T17:07:40.908Z,8.55
2022-11-03T17:10:07.829Z,8.53
2022-11-03T17:12:34.663Z,8.52
2022-11-03T17:15:01.407Z,8.50
2022-11-03T17:17:28.396Z,8.49
2022-11-03T17:19:55.171Z,8.48
2022-11-03T17:22:21.796Z,8.49
2022-11-03T17:24:48.819Z,8.50
2022-11-03T17:27:20.051Z,8.52
2022-11-03T17:29:48.997Z,8.54
2022-11-03T17:32:23.498Z,8.58
2022-11-03T17:34:51.366Z,8.58
2022-11-03T17:37:18.158Z,8.58
2022-11-03T17:39:44.930Z,8.59
2022-11-03T17:42:15.179Z,8.60
2022-11-03T17:44:43.309Z,8.58
2022-11-03T17:47:10.180Z,8.64
2022-11-03T17:49:36.742Z,8.66
2022-11-03T17:52:03.390Z,8.63
2022-11-03T17:54:30.745Z,8.61
2022-11-03T18:00:02.194Z,8.61
2022-11-03T18:02:36.261Z,8.59
2022-11-03T18:05:16.882Z,8.60
2022-11-03T18:07:47.028Z,8.60
2022-11-03T18:10:14.004Z,8.59
2022-11-03T18:13:00.604Z,8.59
2022-11-03T18:15:27.395Z,8.59
2022-11-03T18:17:54.046Z,8.57
2022-11-03T18:20:26.186Z,8.56
2022-11-03T18:22:53.486Z,8.57
2022-11-03T18:25:21.144Z,8.61
2022-11-03T18:27:48.086Z,8.65
2022-11-03T18:30:19.203Z,8.69
2022-11-03T18:32:45.952Z,8.74
2022-11-03T18:35:16.309Z,8.76
2022-11-03T18:37:45.195Z,8.75
2022-11-03T18:40:13.656Z,8.77
2022-11-03T18:42:40.732Z,8.79
2022-11-03T18:45:12.265Z,8.78
2022-11-03T18:47:39.037Z,8.80
2022-11-03T18:50:06.257Z,8.76
2022-11-03T18:52:35.000Z,8.83
2022-11-03T18:55:01.724Z,8.84
2022-11-03T18:57:28.447Z,8.85
2022-11-03T18:59:55.173Z,8.86
2022-11-03T19:02:23.224Z,8.85
2022-11-03T19:04:50.597Z,8.84
2022-11-03T19:07:23.147Z,8.87
2022-11-03T19:09:49.868Z,8.92
2022-11-03T19:12:16.635Z,8.95
2022-11-03T19:14:45.017Z,8.97
2022-11-03T19:17:22.860Z,8.97
2022-11-03T19:19:51.456Z,9.04
2022-11-03T19:22:20.140Z,9.05
2022-11-03T19:24:47.025Z,9.02
2022-11-03T19:27:25.554Z,9.04
2022-11-03T19:29:52.314Z,9.05
2022-11-03T19:32:23.119Z,9.08
2022-11-03T19:34:54.277Z,9.11
2022-11-03T19:37:21.012Z,9.13
2022-11-03T19:39:48.490Z,9.16
2022-11-03T19:42:31.098Z,9.17
2022-11-03T19:44:58.789Z,9.18
2022-11-03T19:47:32.856Z,9.18
2022-11-03T19:50:01.484Z,9.17
2022-11-03T19:52:28.803Z,9.17
2022-11-03T19:54:55.605Z,9.16
2022-11-03T19:57:22.408Z,9.17
2022-11-03T19:59:49.057Z,9.17
2022-11-03T20:02:15.950Z,9.17
2022-11-03T20:04:46.718Z,9.16
2022-11-03T20:07:14.295Z,9.17
2022-11-03T20:09:41.054Z,9.18
2022-11-03T20:12:08.262Z,9.19
2022-11-03T20:14:35.342Z,9.19
2022-11-03T20:17:16.745Z,9.20
2022-11-03T20:19:44.017Z,9.17
2022-11-03T20:22:16.322Z,9.21
2022-11-03T20:24:44.447Z,9.22
2022-11-03T20:27:11.696Z,9.24
2022-11-03T20:29:39.062Z,9.25
2022-11-03T20:32:05.836Z,9.25
2022-11-03T20:34:32.496Z,9.24
2022-11-03T20:37:04.416Z,9.24
2022-11-03T20:39:32.427Z,9.24
2022-11-03T20:42:00.419Z,9.21
2022-11-03T20:44:27.180Z,9.17
2022-11-03T20:46:53.875Z,9.13
2022-11-03T20:49:21.669Z,9.10
2022-11-03T20:51:48.394Z,9.07
2022-11-03T20:54:16.704Z,9.06
2022-11-03T20:56:43.468Z,9.03
2022-11-03T21:01:45.644Z,8.99
2022-11-03T21:04:16.301Z,8.99
2022-11-03T21:06:43.108Z,8.98
2022-11-03T21:09:13.382Z,8.98
2022-11-03T21:11:40.707Z,8.98
2022-11-03T21:14:15.467Z,8.98
2022-11-03T21:17:00.852Z,8.97
2022-11-03T21:19:41.247Z,8.97
2022-11-03T21:22:51.454Z,8.97
2022-11-03T21:25:04.179Z,8.97
2022-11-03T21:27:30.914Z,8.96
2022-11-03T21:29:59.963Z,8.95
2022-11-03T21:32:27.140Z,8.95
2022-11-03T21:34:53.828Z,8.95
2022-11-03T21:37:20.536Z,8.95
2022-11-03T21:39:47.609Z,8.96
2022-11-03T21:42:33.614Z,8.97
2022-11-03T21:45:00.421Z,8.97
2022-11-03T21:47:27.311Z,8.97
2022-11-03T21:49:54.012Z,8.98
2022-11-03T21:52:33.935Z,8.99
2022-11-03T21:55:01.454Z,9.00
2022-11-03T21:57:28.575Z,9.00
2022-11-03T21:59:59.093Z,9.00
2022-11-03T22:02:30.141Z,8.98
2022-11-03T22:04:57.370Z,8.98
2022-11-03T22:07:24.081Z,8.98
2022-11-03T22:09:50.802Z,8.99
2022-11-03T22:12:17.630Z,9.00
2022-11-03T22:15:03.069Z,9.00
2022-11-03T22:17:29.875Z,8.99
2022-11-03T22:20:15.257Z,8.96
2022-11-03T22:23:00.691Z,8.94
2022-11-03T22:25:46.009Z,8.91
2022-11-03T22:28:14.925Z,8.89
2022-11-03T22:31:00.480Z,8.86
2022-11-03T22:33:27.252Z,8.83
2022-11-03T22:36:21.199Z,8.81
2022-11-03T22:39:07.194Z,8.78
2022-11-03T22:41:53.090Z,8.73
2022-11-03T22:44:38.513Z,8.70
2022-11-03T22:47:08.173Z,8.71
2022-11-03T22:49:36.546Z,8.69
2022-11-03T22:52:04.187Z,8.70
2022-11-03T22:54:30.896Z,8.71
2022-11-03T22:56:57.526Z,8.72
2022-11-03T22:59:24.254Z,8.73
2022-11-03T23:01:51.374Z,8.74
2022-11-03T23:04:18.196Z,8.75
2022-11-03T23:06:44.861Z,8.77
2022-11-03T23:09:12.277Z,8.76
2022-11-03T23:11:39.110Z,8.78
2022-11-03T23:14:07.617Z,8.76
2022-11-03T23:16:41.889Z,8.72
2022-11-03T23:19:31.873Z,8.67
2022-11-03T23:21:58.964Z,8.66
2022-11-03T23:24:45.563Z,8.64
2022-11-03T23:27:12.708Z,8.64
2022-11-03T23:29:39.468Z,8.63
2022-11-03T23:32:06.343Z,8.63
2022-11-03T23:34:35.110Z,8.64
2022-11-03T23:37:02.588Z,8.65
2022-11-03T23:39:29.311Z,8.66
2022-11-03T23:41:55.990Z,8.67
2022-11-03T23:44:22.839Z,8.69
2022-11-03T23:47:08.545Z,8.70
2022-11-03T23:49:35.361Z,8.71
2022-11-03T23:52:02.017Z,8.70
2022-11-03T23:54:28.793Z,8.70
2022-11-03T23:57:14.319Z,8.68
2022-11-03T23:59:41.142Z,8.63
